createdAt,value
2023-04-09T00:02:28.130Z,8.46
2023-04-09T00:04:55.841Z,8.46
2023-04-09T00:07:23.593Z,8.51
2023-04-09T00:09:51.246Z,8.47
2023-04-09T00:12:18.923Z,8.43
2023-04-09T00:14:46.668Z,8.39
2023-04-09T00:17:14.515Z,8.41
2023-04-09T00:19:43.590Z,8.41
2023-04-09T00:22:11.423Z,8.45
2023-04-09T00:24:39.039Z,8.54
2023-04-09T00:27:06.992Z,8.60
2023-04-09T00:29:34.736Z,8.62
2023-04-09T00:32:02.743Z,8.44
2023-04-09T00:34:30.530Z,8.49
2023-04-09T00:36:59.706Z,8.45
2023-04-09T00:39:28.092Z,8.45
2023-04-09T00:41:59.291Z,8.55
2023-04-09T00:44:26.929Z,8.52
2023-04-09T00:46:55.493Z,8.59
2023-04-09T00:49:24.695Z,8.61
2023-04-09T00:51:52.396Z,8.60
2023-04-09T00:54:21.509Z,8.58
2023-04-09T00:56:49.202Z,8.57
2023-04-09T00:59:17.599Z,8.62
2023-04-09T01:01:46.191Z,8.62
2023-04-09T01:04:13.975Z,8.52
2023-04-09T01:06:50.686Z,8.53
2023-04-09T01:09:28.709Z,8.66
2023-04-09T01:12:07.422Z,8.68
2023-04-09T01:14:39.865Z,8.64
2023-04-09T01:17:16.630Z,8.42
2023-04-09T01:19:49.922Z,8.54
2023-04-09T01:22:31.498Z,8.48
2023-04-09T01:25:08.058Z,8.45
2023-04-09T01:27:52.614Z,8.33
2023-04-09T01:30:22.741Z,8.33
2023-04-09T01:32:52.767Z,8.20
2023-04-09T01:35:21.812Z,8.02
2023-04-09T01:37:50.666Z,7.99
2023-04-09T01:40:18.415Z,7.77
2023-04-09T01:42:47.277Z,7.67
2023-04-09T01:45:16.717Z,7.67
2023-04-09T01:47:46.592Z,7.63
2023-04-09T01:50:14.324Z,7.55
2023-04-09T01:52:42.172Z,7.46
2023-04-09T01:55:10.126Z,7.18
2023-04-09T01:57:37.796Z,7.04
2023-04-09T02:00:09.324Z,6.95
2023-04-09T02:03:00.257Z,6.74
2023-04-09T02:05:32.844Z,6.64
2023-04-09T02:08:05.061Z,6.40
2023-04-09T02:10:35.478Z,6.33
2023-04-09T02:13:06.721Z,6.22
2023-04-09T02:15:37.487Z,6.09
2023-04-09T02:18:21.374Z,6.15
2023-04-09T02:20:49.339Z,6.14
2023-04-09T02:23:16.993Z,6.07
2023-04-09T02:25:45.475Z,6.06
2023-04-09T02:28:13.317Z,5.84
2023-04-09T02:30:47.064Z,5.99
2023-04-09T02:33:16.258Z,5.97
2023-04-09T02:35:44.504Z,5.95
2023-04-09T02:38:13.804Z,5.89
2023-04-09T02:40:42.030Z,5.94
2023-04-09T02:43:09.923Z,5.89
2023-04-09T02:45:37.906Z,5.88
2023-04-09T02:48:05.990Z,5.86
2023-04-09T02:50:37.536Z,5.78
2023-04-09T02:53:05.218Z,5.80
2023-04-09T02:55:33.050Z,5.85
2023-04-09T02:58:00.795Z,5.83
2023-04-09T03:00:28.514Z,5.86
2023-04-09T03:02:58.034Z,5.77
2023-04-09T03:05:26.106Z,5.75
2023-04-09T03:07:55.989Z,5.76
2023-04-09T03:10:23.888Z,5.73
2023-04-09T03:12:51.540Z,5.75
2023-04-09T03:15:19.403Z,5.68
2023-04-09T03:17:47.107Z,5.69
2023-04-09T03:20:14.819Z,5.69
2023-04-09T03:22:43.159Z,5.68
2023-04-09T03:25:23.625Z,5.72
2023-04-09T03:27:54.966Z,5.75
2023-04-09T03:30:36.004Z,5.76
2023-04-09T03:33:06.751Z,5.68
2023-04-09T03:35:43.304Z,5.70
2023-04-09T03:38:12.176Z,5.73
2023-04-09T03:40:41.971Z,5.76
2023-04-09T03:43:09.890Z,5.81
2023-04-09T03:45:39.916Z,5.90
2023-04-09T03:48:22.302Z,5.88
2023-04-09T03:50:50.990Z,5.94
2023-04-09T03:53:26.350Z,5.98
2023-04-09T03:56:02.919Z,6.06
2023-04-09T03:58:30.996Z,6.19
2023-04-09T04:00:59.555Z,6.30
2023-04-09T04:03:36.375Z,6.45
2023-04-09T04:06:39.610Z,6.67
2023-04-09T04:09:20.336Z,6.62
2023-04-09T04:11:55.852Z,6.13
2023-04-09T04:14:27.045Z,6.76
2023-04-09T04:17:02.200Z,6.79
2023-04-09T04:19:31.652Z,6.83
2023-04-09T04:22:00.648Z,6.78
2023-04-09T04:24:28.522Z,6.69
2023-04-09T04:26:57.740Z,6.54
2023-04-09T04:29:31.594Z,6.51
2023-04-09T04:32:01.980Z,6.31
2023-04-09T04:34:35.784Z,6.20
2023-04-09T04:37:10.904Z,6.30
2023-04-09T04:39:38.537Z,6.20
2023-04-09T04:42:12.588Z,6.12
2023-04-09T04:44:40.820Z,6.09
2023-04-09T04:47:30.714Z,6.04
2023-04-09T04:49:59.693Z,5.97
2023-04-09T04:52:27.406Z,5.82
2023-04-09T04:54:55.390Z,5.82
2023-04-09T04:57:26.173Z,5.85
2023-04-09T04:59:54.526Z,5.79
2023-04-09T05:02:22.607Z,5.73
2023-04-09T05:05:09.204Z,5.70
2023-04-09T05:07:42.661Z,5.73
2023-04-09T05:10:10.843Z,5.70
2023-04-09T05:12:43.111Z,5.80
2023-04-09T05:15:13.187Z,5.75
2023-04-09T05:17:43.738Z,5.76
2023-04-09T05:20:12.871Z,5.76
2023-04-09T05:22:49.300Z,5.83
2023-04-09T05:25:17.410Z,5.89
2023-04-09T05:27:46.601Z,5.96
2023-04-09T05:30:14.414Z,6.14
2023-04-09T05:32:42.979Z,6.27
2023-04-09T05:35:10.856Z,6.21
2023-04-09T05:37:42.273Z,6.31
2023-04-09T05:40:11.113Z,6.37
2023-04-09T05:42:39.032Z,6.40
2023-04-09T05:45:14.536Z,6.55
2023-04-09T05:47:48.958Z,6.54
2023-04-09T05:50:23.320Z,6.65
2023-04-09T05:52:54.437Z,6.86
2023-04-09T05:55:27.508Z,6.89
2023-04-09T05:57:59.918Z,6.80
2023-04-09T06:00:29.343Z,6.88
2023-04-09T06:02:57.157Z,7.13
2023-04-09T06:05:24.839Z,7.29
2023-04-09T06:07:52.642Z,7.53
2023-04-09T06:10:20.478Z,7.65
2023-04-09T06:12:49.541Z,7.71
2023-04-09T06:15:18.592Z,7.81
2023-04-09T06:17:47.768Z,8.04
2023-04-09T06:20:15.535Z,8.18
2023-04-09T06:22:43.154Z,8.17
2023-04-09T06:25:10.967Z,8.35
2023-04-09T06:27:38.646Z,8.47
2023-04-09T06:30:07.759Z,8.52
2023-04-09T06:32:47.007Z,8.64
2023-04-09T06:35:22.555Z,8.74
2023-04-09T06:37:50.359Z,8.78
2023-04-09T06:40:20.146Z,8.84
2023-04-09T06:42:49.073Z,8.88
2023-04-09T06:45:23.009Z,9.10
2023-04-09T06:47:50.982Z,9.18
2023-04-09T06:50:18.767Z,9.23
2023-04-09T06:52:47.805Z,9.38
2023-04-09T06:55:15.559Z,9.33
2023-04-09T06:57:43.288Z,9.23
2023-04-09T07:00:12.140Z,9.48
2023-04-09T07:02:40.477Z,9.49
2023-04-09T07:05:09.288Z,9.63
2023-04-09T07:07:37.028Z,9.64
2023-04-09T07:10:07.316Z,8.82
2023-04-09T07:12:35.670Z,9.85
2023-04-09T07:15:05.780Z,9.96
2023-04-09T07:17:34.069Z,9.95
2023-04-09T07:20:01.992Z,9.90
2023-04-09T07:22:30.676Z,9.46
2023-04-09T07:24:58.358Z,9.61
2023-04-09T07:27:28.848Z,10.06
2023-04-09T07:29:57.090Z,10.26
2023-04-09T07:32:25.379Z,10.02
2023-04-09T07:34:53.563Z,10.37
2023-04-09T07:37:21.754Z,10.38
2023-04-09T07:39:51.201Z,10.41
2023-04-09T07:42:19.068Z,10.32
2023-04-09T07:44:48.093Z,10.65
2023-04-09T07:47:15.992Z,10.77
2023-04-09T07:49:43.896Z,11.39
2023-04-09T07:52:11.696Z,11.34
2023-04-09T07:54:39.389Z,11.86
2023-04-09T07:57:08.099Z,12.07
2023-04-09T07:59:36.304Z,12.43
2023-04-09T08:02:05.503Z,12.25
2023-04-09T08:04:33.586Z,12.24
2023-04-09T08:07:01.575Z,12.34
2023-04-09T08:09:29.374Z,12.12
2023-04-09T08:11:57.199Z,12.17
2023-04-09T08:14:24.938Z,12.26
2023-04-09T08:16:53.033Z,12.41
2023-04-09T08:19:22.207Z,12.70
2023-04-09T08:21:49.953Z,12.37
2023-04-09T08:24:18.291Z,12.47
2023-04-09T08:26:46.168Z,12.57
2023-04-09T08:29:14.411Z,12.50
2023-04-09T08:31:42.989Z,12.57
2023-04-09T08:34:10.861Z,12.30
2023-04-09T08:36:40.243Z,12.31
2023-04-09T08:39:07.973Z,12.14
2023-04-09T08:41:39.171Z,12.17
2023-04-09T08:44:07.255Z,12.30
2023-04-09T08:46:37.101Z,12.31
2023-04-09T08:49:04.900Z,12.37
2023-04-09T08:51:32.935Z,12.51
2023-04-09T08:54:04.610Z,12.88
2023-04-09T08:56:33.424Z,12.99
2023-04-09T08:59:01.222Z,12.82
2023-04-09T09:01:30.481Z,13.28
2023-04-09T09:04:00.007Z,13.19
2023-04-09T09:06:30.025Z,13.11
2023-04-09T09:09:05.226Z,13.52
2023-04-09T09:11:33.453Z,14.10
2023-04-09T09:14:03.397Z,14.29
2023-04-09T09:16:33.161Z,13.81
2023-04-09T09:19:01.917Z,13.60
2023-04-09T09:21:30.576Z,13.60
2023-04-09T09:23:58.785Z,13.38
2023-04-09T09:26:30.057Z,13.80
2023-04-09T09:28:59.753Z,14.60
2023-04-09T09:31:27.912Z,14.63
2023-04-09T09:33:56.382Z,14.90
2023-04-09T09:36:34.047Z,14.79
2023-04-09T09:39:09.986Z,14.31
2023-04-09T09:41:39.834Z,14.35
2023-04-09T09:44:08.003Z,14.37
2023-04-09T09:46:38.313Z,14.57
2023-04-09T09:49:06.183Z,14.30
2023-04-09T09:51:36.878Z,14.22
2023-04-09T09:54:04.953Z,14.24
2023-04-09T09:56:36.040Z,14.31
2023-04-09T09:59:14.055Z,14.25
2023-04-09T10:01:42.678Z,14.22
2023-04-09T10:04:15.687Z,14.11
2023-04-09T10:06:45.157Z,14.05
2023-04-09T10:09:13.823Z,14.05
2023-04-09T10:11:45.442Z,13.70
2023-04-09T10:14:15.326Z,13.71
2023-04-09T10:16:43.368Z,13.69
2023-04-09T10:19:14.174Z,14.07
2023-04-09T10:21:48.625Z,14.16
2023-04-09T10:24:17.324Z,14.39
2023-04-09T10:26:46.016Z,14.58
2023-04-09T10:29:16.898Z,14.66
2023-04-09T10:31:50.071Z,14.84
2023-04-09T10:34:19.403Z,15.06
2023-04-09T10:36:51.560Z,14.77
2023-04-09T10:39:19.527Z,14.84
2023-04-09T10:41:48.971Z,14.91
2023-04-09T10:44:25.239Z,14.75
2023-04-09T10:46:55.186Z,14.88
2023-04-09T10:49:24.272Z,14.90
2023-04-09T10:51:53.405Z,14.97
2023-04-09T10:54:43.681Z,15.27
2023-04-09T10:57:13.622Z,15.11
2023-04-09T10:59:44.897Z,15.20
2023-04-09T11:02:55.866Z,15.08
2023-04-09T11:05:30.082Z,14.81
2023-04-09T11:08:04.163Z,14.30
2023-04-09T11:10:32.309Z,14.35
2023-04-09T11:13:00.431Z,14.58
2023-04-09T11:15:30.100Z,14.60
2023-04-09T11:17:58.535Z,14.59
2023-04-09T11:20:27.465Z,14.64
2023-04-09T11:22:56.617Z,15.17
2023-04-09T11:25:26.323Z,15.59
2023-04-09T11:27:54.820Z,15.56
2023-04-09T11:30:22.738Z,15.51
2023-04-09T11:32:52.350Z,15.93
2023-04-09T11:35:22.143Z,15.80
2023-04-09T11:37:52.233Z,15.47
2023-04-09T11:40:22.003Z,15.84
2023-04-09T11:42:51.255Z,15.91
2023-04-09T11:45:20.417Z,15.69
2023-04-09T11:47:48.409Z,15.69
2023-04-09T11:50:17.609Z,15.31
2023-04-09T11:52:46.205Z,15.60
2023-04-09T11:55:23.491Z,15.39
2023-04-09T11:57:53.040Z,15.21
2023-04-09T12:00:21.268Z,15.15
2023-04-09T12:02:50.484Z,15.26
2023-04-09T12:05:24.706Z,14.97
2023-04-09T12:07:56.605Z,15.07
2023-04-09T12:10:28.275Z,15.28
2023-04-09T12:12:56.247Z,15.93
2023-04-09T12:15:25.712Z,15.99
2023-04-09T12:17:57.024Z,16.03
2023-04-09T12:20:34.359Z,16.01
2023-04-09T12:23:05.726Z,16.04
2023-04-09T12:25:35.405Z,16.37
2023-04-09T12:28:03.678Z,16.81
2023-04-09T12:30:31.424Z,17.06
2023-04-09T12:32:59.842Z,17.29
2023-04-09T12:35:28.194Z,17.84
2023-04-09T12:37:57.525Z,18.16
2023-04-09T12:40:25.186Z,18.51
2023-04-09T12:42:53.146Z,18.82
2023-04-09T12:45:21.496Z,18.78
2023-04-09T12:47:49.428Z,18.19
2023-04-09T12:50:17.193Z,18.66
2023-04-09T12:52:45.427Z,18.45
2023-04-09T12:55:15.081Z,18.37
2023-04-09T12:57:45.267Z,18.52
2023-04-09T13:00:14.285Z,18.89
2023-04-09T13:02:42.413Z,18.62
2023-04-09T13:05:10.615Z,18.21
2023-04-09T13:07:38.592Z,18.66
2023-04-09T13:10:07.717Z,18.11
2023-04-09T13:12:36.751Z,18.18
2023-04-09T13:15:05.053Z,18.06
2023-04-09T13:17:32.816Z,17.79
2023-04-09T13:20:01.271Z,17.53
2023-04-09T13:22:28.998Z,17.29
2023-04-09T13:24:56.863Z,17.46
2023-04-09T13:27:24.710Z,17.69
2023-04-09T13:29:53.906Z,17.93
2023-04-09T13:32:24.064Z,18.19
2023-04-09T13:34:53.645Z,18.20
2023-04-09T13:37:21.513Z,17.75
2023-04-09T13:39:49.270Z,17.19
2023-04-09T13:42:17.084Z,16.72
2023-04-09T13:44:45.523Z,17.14
2023-04-09T13:47:18.123Z,17.54
2023-04-09T13:49:46.176Z,17.38
2023-04-09T13:52:15.737Z,17.64
2023-04-09T13:54:43.381Z,17.44
2023-04-09T13:57:11.272Z,17.03
2023-04-09T13:59:39.107Z,17.20
2023-04-09T14:02:06.987Z,17.72
2023-04-09T14:04:36.147Z,18.08
2023-04-09T14:07:04.001Z,18.00
2023-04-09T14:09:31.915Z,17.78
2023-04-09T14:11:59.589Z,17.39
2023-04-09T14:14:27.562Z,16.98
2023-04-09T14:16:55.312Z,16.66
2023-04-09T14:19:24.074Z,16.80
2023-04-09T14:21:54.081Z,17.67
2023-04-09T14:24:23.122Z,18.35
2023-04-09T14:26:53.007Z,18.11
2023-04-09T14:29:20.826Z,17.31
2023-04-09T14:31:48.845Z,17.46
2023-04-09T14:34:16.541Z,17.03
2023-04-09T14:36:44.253Z,17.20
2023-04-09T14:39:13.274Z,17.40
2023-04-09T14:41:41.537Z,17.59
2023-04-09T14:44:09.335Z,18.12
2023-04-09T14:46:38.085Z,18.45
2023-04-09T14:49:06.258Z,17.12
2023-04-09T14:51:34.075Z,17.10
2023-04-09T14:54:02.516Z,16.82
2023-04-09T14:56:31.506Z,16.41
2023-04-09T14:58:59.225Z,16.32
2023-04-09T15:01:27.155Z,16.14
2023-04-09T15:03:55.652Z,15.96
2023-04-09T15:06:23.586Z,15.74
2023-04-09T15:08:51.519Z,15.55
2023-04-09T15:11:22.771Z,15.38
2023-04-09T15:13:52.333Z,15.47
2023-04-09T15:16:24.494Z,15.47
2023-04-09T15:18:52.851Z,15.39
2023-04-09T15:21:20.758Z,15.43
2023-04-09T15:23:48.673Z,15.30
2023-04-09T15:26:16.971Z,15.11
2023-04-09T15:28:46.087Z,14.81
2023-04-09T15:31:15.183Z,14.82
2023-04-09T15:33:43.722Z,14.69
2023-04-09T15:36:11.962Z,14.63
2023-04-09T15:38:40.068Z,14.74
2023-04-09T15:41:07.819Z,14.76
2023-04-09T15:43:35.596Z,14.64
2023-04-09T15:46:08.856Z,14.71
2023-04-09T15:48:38.187Z,14.60
2023-04-09T15:51:06.685Z,14.63
2023-04-09T15:53:34.361Z,14.64
2023-04-09T15:56:02.158Z,14.65
2023-04-09T15:58:29.883Z,14.77
2023-04-09T16:00:57.598Z,15.13
2023-04-09T16:03:25.615Z,15.20
2023-04-09T16:05:54.614Z,15.42
2023-04-09T16:08:22.301Z,15.59
2023-04-09T16:10:50.389Z,15.71
2023-04-09T16:13:18.036Z,15.56
2023-04-09T16:15:46.702Z,15.69
2023-04-09T16:18:14.453Z,15.88
2023-04-09T16:20:42.181Z,15.91
2023-04-09T16:23:11.213Z,15.99
2023-04-09T16:25:39.016Z,15.99
2023-04-09T16:28:06.731Z,15.95
2023-04-09T16:30:34.374Z,15.97
2023-04-09T16:33:02.236Z,15.86
2023-04-09T16:35:29.947Z,15.93
2023-04-09T16:37:57.730Z,15.91
2023-04-09T16:40:26.779Z,16.02
2023-04-09T16:42:54.511Z,16.10
2023-04-09T16:45:22.483Z,15.59
2023-04-09T16:47:53.373Z,15.91
2023-04-09T16:50:21.851Z,16.00
2023-04-09T16:52:49.801Z,16.14
2023-04-09T16:55:18.704Z,16.12
2023-04-09T16:57:47.663Z,15.72
2023-04-09T17:00:17.342Z,15.64
2023-04-09T17:02:45.782Z,15.27
2023-04-09T17:05:13.700Z,15.18
2023-04-09T17:07:41.421Z,14.66
2023-04-09T17:10:09.977Z,14.72
2023-04-09T17:12:38.046Z,14.73
2023-04-09T17:15:08.543Z,14.36
2023-04-09T17:17:36.297Z,14.26
2023-04-09T17:20:04.502Z,14.26
2023-04-09T17:22:32.395Z,14.22
2023-04-09T17:25:00.351Z,14.13
2023-04-09T17:27:28.558Z,13.89
2023-04-09T17:29:56.343Z,13.75
2023-04-09T17:32:25.455Z,13.59
2023-04-09T17:34:53.254Z,13.45
2023-04-09T17:37:21.168Z,13.16
2023-04-09T17:39:48.866Z,12.95
2023-04-09T17:42:16.686Z,12.73
2023-04-09T17:44:45.930Z,12.56
2023-04-09T17:47:13.688Z,12.43
2023-04-09T17:49:42.716Z,12.22
2023-04-09T17:52:10.500Z,11.99
2023-04-09T17:54:39.110Z,11.80
2023-04-09T17:57:07.872Z,11.73
2023-04-09T17:59:35.707Z,11.54
2023-04-09T18:02:03.627Z,11.30
2023-04-09T18:04:32.501Z,11.09
2023-04-09T18:07:01.899Z,11.00
2023-04-09T18:09:29.642Z,10.90
2023-04-09T18:11:57.753Z,10.73
2023-04-09T18:14:25.568Z,10.54
2023-04-09T18:16:53.583Z,10.32
2023-04-09T18:19:21.752Z,10.31
2023-04-09T18:21:49.383Z,10.09
2023-04-09T18:24:18.973Z,9.98
2023-04-09T18:26:46.594Z,9.80
2023-04-09T18:29:14.316Z,9.60
2023-04-09T18:31:42.034Z,9.51
2023-04-09T18:34:09.752Z,9.30
2023-04-09T18:36:37.623Z,9.16
2023-04-09T18:39:05.774Z,9.08
2023-04-09T18:41:34.848Z,9.01
2023-04-09T18:44:03.964Z,9.00
2023-04-09T18:46:32.057Z,8.89
2023-04-09T18:48:59.806Z,8.79
2023-04-09T18:51:27.963Z,8.72
2023-04-09T18:53:55.842Z,8.61
2023-04-09T18:56:24.596Z,8.55
2023-04-09T18:58:53.859Z,8.46
2023-04-09T19:01:22.142Z,8.35
2023-04-09T19:03:49.929Z,8.29
2023-04-09T19:06:19.824Z,8.25
2023-04-09T19:08:47.921Z,8.23
2023-04-09T19:11:16.118Z,8.17
2023-04-09T19:13:43.764Z,8.16
2023-04-09T19:16:13.146Z,8.17
2023-04-09T19:18:40.891Z,8.15
2023-04-09T19:21:08.970Z,7.39
2023-04-09T19:23:36.638Z,8.08
2023-04-09T19:26:05.377Z,8.04
2023-04-09T19:28:33.267Z,8.11
2023-04-09T19:31:02.815Z,8.17
2023-04-09T19:33:32.701Z,8.19
2023-04-09T19:36:00.420Z,8.15
2023-04-09T19:38:28.174Z,8.21
2023-04-09T19:40:56.159Z,8.18
2023-04-09T19:43:23.979Z,8.20
2023-04-09T19:45:51.670Z,8.25
2023-04-09T19:48:19.441Z,8.30
2023-04-09T19:50:48.878Z,8.31
2023-04-09T19:53:16.604Z,8.28
2023-04-09T19:55:44.613Z,8.30
2023-04-09T19:58:12.276Z,8.31
2023-04-09T20:00:39.998Z,8.25
2023-04-09T20:03:08.037Z,8.24
2023-04-09T20:05:35.847Z,8.23
2023-04-09T20:08:05.575Z,8.15
2023-04-09T20:10:33.314Z,8.17
2023-04-09T20:13:01.614Z,8.08
2023-04-09T20:15:29.690Z,8.01
2023-04-09T20:17:57.390Z,8.03
2023-04-09T20:20:25.177Z,8.14
2023-04-09T20:22:56.144Z,8.10
2023-04-09T20:25:27.814Z,8.01
2023-04-09T20:27:55.830Z,8.13
2023-04-09T20:30:23.620Z,8.12
2023-04-09T20:32:51.584Z,7.93
2023-04-09T20:35:19.399Z,7.97
2023-04-09T20:37:48.378Z,7.94
2023-04-09T20:40:16.454Z,7.96
2023-04-09T20:42:45.509Z,7.99
2023-04-09T20:45:13.225Z,7.99
2023-04-09T20:47:40.931Z,7.93
2023-04-09T20:50:09.784Z,7.85
2023-04-09T20:52:38.219Z,7.82
2023-04-09T20:55:07.388Z,7.77
2023-04-09T20:57:35.037Z,7.72
2023-04-09T21:00:04.230Z,7.77
2023-04-09T21:02:32.083Z,7.82
2023-04-09T21:05:05.475Z,7.85
2023-04-09T21:07:42.953Z,7.92
2023-04-09T21:10:10.909Z,7.27
2023-04-09T21:12:38.551Z,7.83
2023-04-09T21:15:09.094Z,7.87
2023-04-09T21:17:36.797Z,7.80
2023-04-09T21:20:05.241Z,7.92
2023-04-09T21:22:32.979Z,7.77
2023-04-09T21:25:00.682Z,7.79
2023-04-09T21:27:28.339Z,7.68
2023-04-09T21:29:56.044Z,7.67
2023-04-09T21:32:25.248Z,7.62
2023-04-09T21:34:53.064Z,7.55
2023-04-09T21:37:20.723Z,7.45
2023-04-09T21:39:48.771Z,7.22
2023-04-09T21:42:16.813Z,7.18
2023-04-09T21:44:44.537Z,7.06
2023-04-09T21:47:13.058Z,6.83
2023-04-09T21:49:42.993Z,6.99
2023-04-09T21:52:14.920Z,6.94
2023-04-09T21:54:43.177Z,6.91
2023-04-09T21:57:11.060Z,7.00
2023-04-09T21:59:40.972Z,6.99
2023-04-09T22:02:08.690Z,6.94
2023-04-09T22:04:36.553Z,6.79
2023-04-09T22:07:05.680Z,6.81
2023-04-09T22:09:33.470Z,6.76
2023-04-09T22:12:02.615Z,6.68
2023-04-09T22:14:32.341Z,6.61
2023-04-09T22:17:01.512Z,6.56
2023-04-09T22:19:31.424Z,6.46
2023-04-09T22:21:59.684Z,6.51
2023-04-09T22:24:30.079Z,6.52
2023-04-09T22:26:58.823Z,6.43
2023-04-09T22:29:27.671Z,6.28
2023-04-09T22:31:55.714Z,6.26
2023-04-09T22:34:23.624Z,6.19
2023-04-09T22:36:51.536Z,6.08
2023-04-09T22:39:19.661Z,6.01
2023-04-09T22:41:48.659Z,6.00
2023-04-09T22:44:16.437Z,5.90
2023-04-09T22:46:44.547Z,5.89
2023-04-09T22:49:12.335Z,5.85
2023-04-09T22:51:41.763Z,5.86
2023-04-09T22:54:09.780Z,5.82
2023-04-09T22:56:37.677Z,5.79
2023-04-09T22:59:07.073Z,5.73
2023-04-09T23:01:34.879Z,5.61
2023-04-09T23:04:02.595Z,5.68
2023-04-09T23:06:30.837Z,5.56
2023-04-09T23:08:59.723Z,5.48
2023-04-09T23:11:27.572Z,5.05
2023-04-09T23:13:55.326Z,5.51
2023-04-09T23:16:24.374Z,5.43
2023-04-09T23:18:52.325Z,5.45
2023-04-09T23:21:20.759Z,5.43
2023-04-09T23:23:48.397Z,5.41
2023-04-09T23:26:16.113Z,5.45
2023-04-09T23:28:43.769Z,5.41
2023-04-09T23:31:11.589Z,5.41
2023-04-09T23:33:40.713Z,5.41
2023-04-09T23:36:09.040Z,5.42
2023-04-09T23:38:36.790Z,5.45
2023-04-09T23:41:04.562Z,5.45
2023-04-09T23:43:32.448Z,5.40
2023-04-09T23:46:00.071Z,5.51
2023-04-09T23:48:27.824Z,5.47
2023-04-09T23:50:56.848Z,5.47
2023-04-09T23:53:24.658Z,5.49
2023-04-09T23:55:52.613Z,5.45
2023-04-09T23:58:21.294Z,5.37
